Hauptseite
METAR-TAF:

METAR-TAF

Flughäfen :

Flughafen Taschkent

Taschkent, Usbekistan

Breite: 41-16N, Länge: 069-16E, Höhe: 489 m

Beobachtung

Neuester Wetterbericht von vor 43 Minuten, um 18:00 UTC
Wind 12 kt aus Nord, variierte zwischen Nord/Nordwest und Nordost
Temperatur 32°C
Luftfeuchtigkeit 23%
Luftdruck 1000 hPa
Sichtweite 10 km oder mehr
keine Wolken unter 1500 m und keine Kumulonimbus oder Gewitterwolken

METAR: UTTT 151800Z 36012KT 330V040 CAVOK 32/08 Q1000 R08R/CLRD70 NOSIG

Zeit: 23:43 (18:43 UTC)

Prognose

Neuester Wetterbericht von vor 1 Stunde und 43 Minuten, um 17:00 UTC
Gültige Prognose vom 15 um 18 UTC bis 16 um 18 UTC
Wind 12 kt aus Nord/Nordwest
Sichtweite 10 km oder mehr
Zeitweise
vom 15 um 18 UTC bis 15 um 24 UTC
Wind 12 kt aus Südwest, Böen bis zu 22 kt

TAF: UTTT 151700Z 1518/1618 33012KT 9999 NSC TX39/1610Z TEMPO 1518/1524 23012G22KT

Wetterbeobachtungen und Prognosen von mehr als 4000 Flughäfen (METAR und TAF Bericht).

Die verfügbaren Stationen werden durch gelbe und rote Markierungen auf der Karte dargestellt.

Führen Sie die Maus auf sie, um den Namen der Station zu sehen.

Darauf klicken, um die Beobachtung von Wetterbeobachtungen und Prognosen zu sehen.

Um die Karte zu ändern : klicken Sie auf den grünen Tasten mit einem schwarzen Kreuz Zum Vergrößern, auf den grünen Button mit einem Gedankenstrich zu verkleinern, oder auf die grünen Pfeile für benachbarte Karten.


METAR-TAF: